sensor_id;sensor_type;location;lat;lon;timestamp;temperature;humidity
16966;DHT22;8599;47.852;12.070;2022-12-07T00:01:20;4.20;99.90
16966;DHT22;8599;47.852;12.070;2022-12-07T00:03:50;4.20;99.90
16966;DHT22;8599;47.852;12.070;2022-12-07T00:06:18;4.10;99.90
16966;DHT22;8599;47.852;12.070;2022-12-07T00:08:46;4.10;99.90
16966;DHT22;8599;47.852;12.070;2022-12-07T00:11:15;4.10;99.90
16966;DHT22;8599;47.852;12.070;2022-12-07T00:13:43;4.10;99.90
16966;DHT22;8599;47.852;12.070;2022-12-07T00:16:12;4.10;99.90
16966;DHT22;8599;47.852;12.070;2022-12-07T00:18:39;4.10;99.90
16966;DHT22;8599;47.852;12.070;2022-12-07T00:21:10;4.10;99.90
16966;DHT22;8599;47.852;12.070;2022-12-07T00:23:38;4.10;99.90
16966;DHT22;8599;47.852;12.070;2022-12-07T00:26:06;4.10;99.90
16966;DHT22;8599;47.852;12.070;2022-12-07T00:28:33;4.10;99.90
16966;DHT22;8599;47.852;12.070;2022-12-07T00:31:02;4.10;99.90
16966;DHT22;8599;47.852;12.070;2022-12-07T00:33:29;4.10;99.90
16966;DHT22;8599;47.852;12.070;2022-12-07T00:35:56;4.00;99.90
16966;DHT22;8599;47.852;12.070;2022-12-07T00:38:27;4.00;99.90
16966;DHT22;8599;47.852;12.070;2022-12-07T00:40:56;4.00;99.90
16966;DHT22;8599;47.852;12.070;2022-12-07T00:43:23;4.10;99.90
16966;DHT22;8599;47.852;12.070;2022-12-07T00:45:50;4.10;99.90
16966;DHT22;8599;47.852;12.070;2022-12-07T00:48:17;4.10;99.90
16966;DHT22;8599;47.852;12.070;2022-12-07T00:50:44;4.00;99.90
16966;DHT22;8599;47.852;12.070;2022-12-07T00:53:11;4.00;99.90
16966;DHT22;8599;47.852;12.070;2022-12-07T00:55:39;4.00;99.90
16966;DHT22;8599;47.852;12.070;2022-12-07T00:58:06;4.10;99.90
16966;DHT22;8599;47.852;12.070;2022-12-07T01:00:33;4.10;99.90
16966;DHT22;8599;47.852;12.070;2022-12-07T01:03:01;4.00;99.90
16966;DHT22;8599;47.852;12.070;2022-12-07T01:05:28;4.10;99.90
16966;DHT22;8599;47.852;12.070;2022-12-07T01:07:55;4.10;99.90
16966;DHT22;8599;47.852;12.070;2022-12-07T01:10:21;4.00;99.90
16966;DHT22;8599;47.852;12.070;2022-12-07T01:12:50;4.00;99.90
16966;DHT22;8599;47.852;12.070;2022-12-07T01:15:16;4.00;99.90
16966;DHT22;8599;47.852;12.070;2022-12-07T01:17:43;4.00;99.90
16966;DHT22;8599;47.852;12.070;2022-12-07T01:20:11;4.00;99.90
16966;DHT22;8599;47.852;12.070;2022-12-07T01:22:39;4.00;99.90
16966;DHT22;8599;47.852;12.070;2022-12-07T01:25:07;4.00;99.90
16966;DHT22;8599;47.852;12.070;2022-12-07T01:27:35;4.00;99.90
16966;DHT22;8599;47.852;12.070;2022-12-07T01:30:06;4.00;99.90
16966;DHT22;8599;47.852;12.070;2022-12-07T01:32:33;4.00;99.90
16966;DHT22;8599;47.852;12.070;2022-12-07T01:34:59;4.00;99.90
16966;DHT22;8599;47.852;12.070;2022-12-07T01:37:26;4.10;99.90
16966;DHT22;8599;47.852;12.070;2022-12-07T01:39:53;4.00;99.90
16966;DHT22;8599;47.852;12.070;2022-12-07T01:42:20;3.90;99.90
16966;DHT22;8599;47.852;12.070;2022-12-07T01:47:54;3.90;99.90
16966;DHT22;8599;47.852;12.070;2022-12-07T01:50:25;3.90;99.90
16966;DHT22;8599;47.852;12.070;2022-12-07T01:52:54;3.90;99.90
16966;DHT22;8599;47.852;12.070;2022-12-07T01:55:22;3.90;99.90
16966;DHT22;8599;47.852;12.070;2022-12-07T01:57:51;3.80;99.90
16966;DHT22;8599;47.852;12.070;2022-12-07T02:00:19;3.80;99.90
16966;DHT22;8599;47.852;12.070;2022-12-07T02:02:50;3.80;99.90
16966;DHT22;8599;47.852;12.070;2022-12-07T02:05:19;3.80;99.90
16966;DHT22;8599;47.852;12.070;2022-12-07T02:07:47;3.80;99.90
16966;DHT22;8599;47.852;12.070;2022-12-07T02:10:17;3.80;99.90
16966;DHT22;8599;47.852;12.070;2022-12-07T02:12:46;3.80;99.90
16966;DHT22;8599;47.852;12.070;2022-12-07T02:15:13;3.90;99.90
16966;DHT22;8599;47.852;12.070;2022-12-07T02:17:47;3.80;99.90
16966;DHT22;8599;47.852;12.070;2022-12-07T02:20:26;3.80;99.90
16966;DHT22;8599;47.852;12.070;2022-12-07T02:23:18;3.80;99.90
16966;DHT22;8599;47.852;12.070;2022-12-07T02:26:02;3.90;99.90
16966;DHT22;8599;47.852;12.070;2022-12-07T02:28:36;3.80;99.90
16966;DHT22;8599;47.852;12.070;2022-12-07T02:31:09;3.90;99.90
16966;DHT22;8599;47.852;12.070;2022-12-07T02:33:43;3.90;99.90
16966;DHT22;8599;47.852;12.070;2022-12-07T02:36:14;3.90;99.90
16966;DHT22;8599;47.852;12.070;2022-12-07T02:38:47;3.90;99.90
16966;DHT22;8599;47.852;12.070;2022-12-07T02:41:18;3.90;99.90
16966;DHT22;8599;47.852;12.070;2022-12-07T02:43:49;3.80;99.90
16966;DHT22;8599;47.852;12.070;2022-12-07T02:46:21;3.80;99.90
16966;DHT22;8599;47.852;12.070;2022-12-07T02:48:50;3.80;99.90
16966;DHT22;8599;47.852;12.070;2022-12-07T02:51:18;3.80;99.90
16966;DHT22;8599;47.852;12.070;2022-12-07T02:53:45;3.80;99.90
16966;DHT22;8599;47.852;12.070;2022-12-07T02:56:20;3.80;99.90
16966;DHT22;8599;47.852;12.070;2022-12-07T02:59:02;3.80;99.90
16966;DHT22;8599;47.852;12.070;2022-12-07T03:01:39;3.90;99.90
16966;DHT22;8599;47.852;12.070;2022-12-07T03:04:26;3.90;99.90
16966;DHT22;8599;47.852;12.070;2022-12-07T03:06:58;3.90;99.90
16966;DHT22;8599;47.852;12.070;2022-12-07T03:09:32;3.80;99.90
16966;DHT22;8599;47.852;12.070;2022-12-07T03:12:06;3.80;99.90
16966;DHT22;8599;47.852;12.070;2022-12-07T03:14:39;3.80;99.90
16966;DHT22;8599;47.852;12.070;2022-12-07T03:17:12;3.80;99.90
16966;DHT22;8599;47.852;12.070;2022-12-07T03:19:42;3.80;99.90
16966;DHT22;8599;47.852;12.070;2022-12-07T03:22:12;3.90;99.90
16966;DHT22;8599;47.852;12.070;2022-12-07T03:24:43;3.90;99.90
16966;DHT22;8599;47.852;12.070;2022-12-07T03:27:16;3.90;99.90
16966;DHT22;8599;47.852;12.070;2022-12-07T03:29:47;3.90;99.90
16966;DHT22;8599;47.852;12.070;2022-12-07T03:32:22;3.90;99.90
16966;DHT22;8599;47.852;12.070;2022-12-07T03:34:55;3.90;99.90
16966;DHT22;8599;47.852;12.070;2022-12-07T03:37:27;3.80;99.90
16966;DHT22;8599;47.852;12.070;2022-12-07T03:40:01;3.80;99.90
16966;DHT22;8599;47.852;12.070;2022-12-07T03:42:29;3.70;99.90
16966;DHT22;8599;47.852;12.070;2022-12-07T03:44:56;3.70;99.90
16966;DHT22;8599;47.852;12.070;2022-12-07T03:47:28;3.80;99.90
16966;DHT22;8599;47.852;12.070;2022-12-07T03:50:00;3.80;99.90
16966;DHT22;8599;47.852;12.070;2022-12-07T03:52:33;3.80;99.90
16966;DHT22;8599;47.852;12.070;2022-12-07T03:55:08;3.80;99.90
16966;DHT22;8599;47.852;12.070;2022-12-07T03:57:37;3.80;99.90
16966;DHT22;8599;47.852;12.070;2022-12-07T04:00:06;3.80;99.90
16966;DHT22;8599;47.852;12.070;2022-12-07T04:02:36;3.80;99.90
16966;DHT22;8599;47.852;12.070;2022-12-07T04:05:03;3.80;99.90
16966;DHT22;8599;47.852;12.070;2022-12-07T04:07:31;3.90;99.90
16966;DHT22;8599;47.852;12.070;2022-12-07T04:09:57;3.90;99.90
16966;DHT22;8599;47.852;12.070;2022-12-07T04:12:24;3.90;99.90
16966;DHT22;8599;47.852;12.070;2022-12-07T04:14:51;3.90;99.90
16966;DHT22;8599;47.852;12.070;2022-12-07T04:17:18;3.90;99.90
16966;DHT22;8599;47.852;12.070;2022-12-07T04:19:46;3.80;99.90
16966;DHT22;8599;47.852;12.070;2022-12-07T04:22:13;3.80;99.90
16966;DHT22;8599;47.852;12.070;2022-12-07T04:24:40;3.80;99.90
16966;DHT22;8599;47.852;12.070;2022-12-07T04:27:06;3.80;99.90
16966;DHT22;8599;47.852;12.070;2022-12-07T04:29:33;3.80;99.90
16966;DHT22;8599;47.852;12.070;2022-12-07T04:32:00;3.80;99.90
16966;DHT22;8599;47.852;12.070;2022-12-07T04:34:27;3.80;99.90
16966;DHT22;8599;47.852;12.070;2022-12-07T04:36:55;3.80;99.90
16966;DHT22;8599;47.852;12.070;2022-12-07T04:39:24;3.70;99.90
16966;DHT22;8599;47.852;12.070;2022-12-07T04:41:52;3.70;99.90
16966;DHT22;8599;47.852;12.070;2022-12-07T04:44:20;3.80;99.90
16966;DHT22;8599;47.852;12.070;2022-12-07T04:46:47;3.80;99.90
16966;DHT22;8599;47.852;12.070;2022-12-07T04:49:14;3.70;99.90
16966;DHT22;8599;47.852;12.070;2022-12-07T04:51:42;3.70;99.90
16966;DHT22;8599;47.852;12.070;2022-12-07T04:54:11;3.80;99.90
16966;DHT22;8599;47.852;12.070;2022-12-07T04:56:38;3.80;99.90
16966;DHT22;8599;47.852;12.070;2022-12-07T04:59:05;3.80;99.90
16966;DHT22;8599;47.852;12.070;2022-12-07T05:01:32;3.80;99.90
16966;DHT22;8599;47.852;12.070;2022-12-07T05:03:59;3.80;99.90
16966;DHT22;8599;47.852;12.070;2022-12-07T05:06:26;3.80;99.90
16966;DHT22;8599;47.852;12.070;2022-12-07T05:08:53;3.80;99.90
16966;DHT22;8599;47.852;12.070;2022-12-07T05:11:22;3.80;99.90
16966;DHT22;8599;47.852;12.070;2022-12-07T05:14:10;3.80;99.90
16966;DHT22;8599;47.852;12.070;2022-12-07T05:16:38;3.70;99.90
16966;DHT22;8599;47.852;12.070;2022-12-07T05:19:05;3.70;99.90
16966;DHT22;8599;47.852;12.070;2022-12-07T05:21:32;3.60;99.90
16966;DHT22;8599;47.852;12.070;2022-12-07T05:23:59;3.70;99.90
16966;DHT22;8599;47.852;12.070;2022-12-07T05:26:28;3.70;99.90
16966;DHT22;8599;47.852;12.070;2022-12-07T05:28:56;3.70;99.90
16966;DHT22;8599;47.852;12.070;2022-12-07T05:31:24;3.70;99.90
16966;DHT22;8599;47.852;12.070;2022-12-07T05:33:52;3.70;99.90
16966;DHT22;8599;47.852;12.070;2022-12-07T05:36:19;3.80;99.90
16966;DHT22;8599;47.852;12.070;2022-12-07T05:38:46;3.70;99.90
16966;DHT22;8599;47.852;12.070;2022-12-07T05:41:14;3.70;99.90
16966;DHT22;8599;47.852;12.070;2022-12-07T05:43:57;3.70;99.90
16966;DHT22;8599;47.852;12.070;2022-12-07T05:46:23;3.70;99.90
16966;DHT22;8599;47.852;12.070;2022-12-07T05:48:50;3.70;99.90
16966;DHT22;8599;47.852;12.070;2022-12-07T05:51:17;3.60;99.90
16966;DHT22;8599;47.852;12.070;2022-12-07T05:53:44;3.60;99.90
16966;DHT22;8599;47.852;12.070;2022-12-07T05:56:11;3.60;99.90
16966;DHT22;8599;47.852;12.070;2022-12-07T05:58:38;3.60;99.90
16966;DHT22;8599;47.852;12.070;2022-12-07T06:01:24;3.60;99.90
16966;DHT22;8599;47.852;12.070;2022-12-07T06:03:51;3.60;99.90
16966;DHT22;8599;47.852;12.070;2022-12-07T06:06:18;3.60;99.90
16966;DHT22;8599;47.852;12.070;2022-12-07T06:08:45;3.60;99.90
16966;DHT22;8599;47.852;12.070;2022-12-07T06:11:12;3.60;99.90
16966;DHT22;8599;47.852;12.070;2022-12-07T06:13:56;3.60;99.90
16966;DHT22;8599;47.852;12.070;2022-12-07T06:16:24;3.60;99.90
16966;DHT22;8599;47.852;12.070;2022-12-07T06:18:51;3.60;99.90
16966;DHT22;8599;47.852;12.070;2022-12-07T06:21:18;3.60;99.90
16966;DHT22;8599;47.852;12.070;2022-12-07T06:23:44;3.70;99.90
16966;DHT22;8599;47.852;12.070;2022-12-07T06:26:13;3.60;99.90
16966;DHT22;8599;47.852;12.070;2022-12-07T06:28:40;3.60;99.90
16966;DHT22;8599;47.852;12.070;2022-12-07T06:31:07;3.60;99.90
16966;DHT22;8599;47.852;12.070;2022-12-07T06:33:35;3.60;99.90
16966;DHT22;8599;47.852;12.070;2022-12-07T06:36:02;3.60;99.90
16966;DHT22;8599;47.852;12.070;2022-12-07T06:38:29;3.60;99.90
16966;DHT22;8599;47.852;12.070;2022-12-07T06:40:56;3.60;99.90
16966;DHT22;8599;47.852;12.070;2022-12-07T06:43:23;3.60;99.90
16966;DHT22;8599;47.852;12.070;2022-12-07T06:45:49;3.50;99.90
16966;DHT22;8599;47.852;12.070;2022-12-07T06:48:16;3.40;99.90
16966;DHT22;8599;47.852;12.070;2022-12-07T06:50:45;3.50;99.90
16966;DHT22;8599;47.852;12.070;2022-12-07T06:53:13;3.50;99.90
16966;DHT22;8599;47.852;12.070;2022-12-07T06:55:40;3.50;99.90
16966;DHT22;8599;47.852;12.070;2022-12-07T06:58:06;3.40;99.90
16966;DHT22;8599;47.852;12.070;2022-12-07T07:00:33;3.40;99.90
16966;DHT22;8599;47.852;12.070;2022-12-07T07:03:01;3.40;99.90
16966;DHT22;8599;47.852;12.070;2022-12-07T07:05:27;3.30;99.90
16966;DHT22;8599;47.852;12.070;2022-12-07T07:07:56;3.10;99.90
16966;DHT22;8599;47.852;12.070;2022-12-07T07:10:22;3.00;99.90
16966;DHT22;8599;47.852;12.070;2022-12-07T07:12:49;2.90;99.90
16966;DHT22;8599;47.852;12.070;2022-12-07T07:15:16;2.80;99.90
16966;DHT22;8599;47.852;12.070;2022-12-07T07:17:43;2.70;99.90
16966;DHT22;8599;47.852;12.070;2022-12-07T07:20:11;2.70;99.90
16966;DHT22;8599;47.852;12.070;2022-12-07T07:22:38;2.60;99.90
16966;DHT22;8599;47.852;12.070;2022-12-07T07:25:07;2.70;99.90
16966;DHT22;8599;47.852;12.070;2022-12-07T07:27:34;2.70;99.90
16966;DHT22;8599;47.852;12.070;2022-12-07T07:30:00;2.80;99.90
16966;DHT22;8599;47.852;12.070;2022-12-07T07:32:27;2.90;99.90
16966;DHT22;8599;47.852;12.070;2022-12-07T07:34:54;3.00;99.90
16966;DHT22;8599;47.852;12.070;2022-12-07T07:37:21;3.00;99.90
16966;DHT22;8599;47.852;12.070;2022-12-07T07:39:48;3.10;99.90
16966;DHT22;8599;47.852;12.070;2022-12-07T07:42:16;3.10;99.90
16966;DHT22;8599;47.852;12.070;2022-12-07T07:44:43;3.10;99.90
16966;DHT22;8599;47.852;12.070;2022-12-07T07:47:10;3.20;99.90
16966;DHT22;8599;47.852;12.070;2022-12-07T07:49:37;3.20;99.90
16966;DHT22;8599;47.852;12.070;2022-12-07T07:52:05;3.10;99.90
16966;DHT22;8599;47.852;12.070;2022-12-07T07:54:32;3.10;99.90
16966;DHT22;8599;47.852;12.070;2022-12-07T07:56:59;3.20;99.90
16966;DHT22;8599;47.852;12.070;2022-12-07T07:59:27;3.10;99.90
16966;DHT22;8599;47.852;12.070;2022-12-07T08:01:53;3.20;99.90
16966;DHT22;8599;47.852;12.070;2022-12-07T08:04:20;3.20;99.90
16966;DHT22;8599;47.852;12.070;2022-12-07T08:06:47;3.30;99.90
16966;DHT22;8599;47.852;12.070;2022-12-07T08:09:14;3.30;99.90
16966;DHT22;8599;47.852;12.070;2022-12-07T08:11:41;3.30;99.90
16966;DHT22;8599;47.852;12.070;2022-12-07T08:14:07;3.30;99.90
16966;DHT22;8599;47.852;12.070;2022-12-07T08:16:37;3.30;99.90
16966;DHT22;8599;47.852;12.070;2022-12-07T08:19:04;3.20;99.90
16966;DHT22;8599;47.852;12.070;2022-12-07T08:21:31;3.30;99.90
16966;DHT22;8599;47.852;12.070;2022-12-07T08:23:58;3.30;99.90
16966;DHT22;8599;47.852;12.070;2022-12-07T08:26:25;3.30;99.90
16966;DHT22;8599;47.852;12.070;2022-12-07T08:28:52;3.30;99.90
16966;DHT22;8599;47.852;12.070;2022-12-07T08:31:20;3.30;99.90
16966;DHT22;8599;47.852;12.070;2022-12-07T08:33:48;3.30;99.90
16966;DHT22;8599;47.852;12.070;2022-12-07T08:36:16;3.20;99.90
16966;DHT22;8599;47.852;12.070;2022-12-07T08:38:43;3.30;99.90
16966;DHT22;8599;47.852;12.070;2022-12-07T08:41:10;3.30;99.90
16966;DHT22;8599;47.852;12.070;2022-12-07T08:43:37;3.30;99.90
16966;DHT22;8599;47.852;12.070;2022-12-07T08:46:08;3.40;99.90
16966;DHT22;8599;47.852;12.070;2022-12-07T08:48:38;3.40;99.90
16966;DHT22;8599;47.852;12.070;2022-12-07T08:51:07;3.50;99.90
16966;DHT22;8599;47.852;12.070;2022-12-07T08:53:35;3.50;99.90
16966;DHT22;8599;47.852;12.070;2022-12-07T08:56:04;3.50;99.90
16966;DHT22;8599;47.852;12.070;2022-12-07T08:58:31;3.50;99.90
16966;DHT22;8599;47.852;12.070;2022-12-07T09:00:58;3.50;99.90
16966;DHT22;8599;47.852;12.070;2022-12-07T09:03:25;3.60;99.90
16966;DHT22;8599;47.852;12.070;2022-12-07T09:05:53;3.60;99.90
16966;DHT22;8599;47.852;12.070;2022-12-07T09:08:21;3.60;99.90
16966;DHT22;8599;47.852;12.070;2022-12-07T09:10:48;3.50;99.90
16966;DHT22;8599;47.852;12.070;2022-12-07T09:13:15;3.50;99.90
16966;DHT22;8599;47.852;12.070;2022-12-07T09:15:42;3.50;99.90
16966;DHT22;8599;47.852;12.070;2022-12-07T09:18:09;3.50;99.90
16966;DHT22;8599;47.852;12.070;2022-12-07T09:20:36;3.60;99.90
16966;DHT22;8599;47.852;12.070;2022-12-07T09:23:05;3.50;99.90
16966;DHT22;8599;47.852;12.070;2022-12-07T09:25:33;3.60;99.90
16966;DHT22;8599;47.852;12.070;2022-12-07T09:28:00;3.70;99.90
16966;DHT22;8599;47.852;12.070;2022-12-07T09:30:28;3.70;99.90
16966;DHT22;8599;47.852;12.070;2022-12-07T09:32:55;3.70;99.90
16966;DHT22;8599;47.852;12.070;2022-12-07T09:35:23;3.70;99.90
16966;DHT22;8599;47.852;12.070;2022-12-07T09:37:50;3.70;99.90
16966;DHT22;8599;47.852;12.070;2022-12-07T09:40:19;3.70;99.90
16966;DHT22;8599;47.852;12.070;2022-12-07T09:42:51;3.70;99.90
16966;DHT22;8599;47.852;12.070;2022-12-07T09:45:21;3.70;99.90
16966;DHT22;8599;47.852;12.070;2022-12-07T09:47:48;3.70;99.90
16966;DHT22;8599;47.852;12.070;2022-12-07T09:50:18;3.70;99.90
16966;DHT22;8599;47.852;12.070;2022-12-07T09:52:46;3.70;99.90
16966;DHT22;8599;47.852;12.070;2022-12-07T09:55:16;3.70;99.90
16966;DHT22;8599;47.852;12.070;2022-12-07T09:57:44;3.70;99.90
16966;DHT22;8599;47.852;12.070;2022-12-07T10:00:15;3.70;99.90
16966;DHT22;8599;47.852;12.070;2022-12-07T10:02:44;3.70;99.90
16966;DHT22;8599;47.852;12.070;2022-12-07T10:05:14;3.80;99.90
16966;DHT22;8599;47.852;12.070;2022-12-07T10:07:41;3.80;99.90
16966;DHT22;8599;47.852;12.070;2022-12-07T10:10:14;3.80;99.90
16966;DHT22;8599;47.852;12.070;2022-12-07T10:12:56;3.90;99.90
16966;DHT22;8599;47.852;12.070;2022-12-07T10:15:41;3.90;99.90
16966;DHT22;8599;47.852;12.070;2022-12-07T10:18:18;3.90;99.90
16966;DHT22;8599;47.852;12.070;2022-12-07T10:20:46;3.90;99.90
16966;DHT22;8599;47.852;12.070;2022-12-07T10:23:15;3.90;99.90
16966;DHT22;8599;47.852;12.070;2022-12-07T10:25:43;3.90;99.90
16966;DHT22;8599;47.852;12.070;2022-12-07T10:28:13;4.00;99.90
16966;DHT22;8599;47.852;12.070;2022-12-07T10:30:51;4.00;99.90
16966;DHT22;8599;47.852;12.070;2022-12-07T10:33:29;4.10;99.90
16966;DHT22;8599;47.852;12.070;2022-12-07T10:35:56;4.20;99.90
16966;DHT22;8599;47.852;12.070;2022-12-07T10:38:25;4.10;99.90
16966;DHT22;8599;47.852;12.070;2022-12-07T10:41:03;4.10;99.90
16966;DHT22;8599;47.852;12.070;2022-12-07T10:43:31;4.00;99.90
16966;DHT22;8599;47.852;12.070;2022-12-07T10:46:32;4.10;99.90
16966;DHT22;8599;47.852;12.070;2022-12-07T10:49:13;4.10;99.90
16966;DHT22;8599;47.852;12.070;2022-12-07T10:51:49;4.10;99.90
16966;DHT22;8599;47.852;12.070;2022-12-07T10:54:25;4.10;99.90
16966;DHT22;8599;47.852;12.070;2022-12-07T10:57:06;4.10;99.90
16966;DHT22;8599;47.852;12.070;2022-12-07T10:59:55;4.30;99.90
16966;DHT22;8599;47.852;12.070;2022-12-07T11:02:40;4.20;99.90
16966;DHT22;8599;47.852;12.070;2022-12-07T11:05:19;4.20;99.90
16966;DHT22;8599;47.852;12.070;2022-12-07T11:07:59;4.20;99.90
16966;DHT22;8599;47.852;12.070;2022-12-07T11:10:33;4.30;99.90
16966;DHT22;8599;47.852;12.070;2022-12-07T11:13:18;4.30;99.90
16966;DHT22;8599;47.852;12.070;2022-12-07T11:15:57;4.20;99.90
16966;DHT22;8599;47.852;12.070;2022-12-07T11:18:32;4.30;99.90
16966;DHT22;8599;47.852;12.070;2022-12-07T11:21:06;4.30;99.90
16966;DHT22;8599;47.852;12.070;2022-12-07T11:23:44;4.20;99.90
16966;DHT22;8599;47.852;12.070;2022-12-07T11:26:19;4.20;99.90
16966;DHT22;8599;47.852;12.070;2022-12-07T11:29:05;4.20;99.90
16966;DHT22;8599;47.852;12.070;2022-12-07T11:31:37;4.20;99.90
16966;DHT22;8599;47.852;12.070;2022-12-07T11:34:10;4.20;99.90
16966;DHT22;8599;47.852;12.070;2022-12-07T11:36:42;4.20;99.90
16966;DHT22;8599;47.852;12.070;2022-12-07T11:39:16;4.20;99.90
16966;DHT22;8599;47.852;12.070;2022-12-07T11:41:50;4.20;99.90
16966;DHT22;8599;47.852;12.070;2022-12-07T11:44:27;4.20;99.90
16966;DHT22;8599;47.852;12.070;2022-12-07T11:46:59;4.20;99.90
16966;DHT22;8599;47.852;12.070;2022-12-07T11:49:40;4.30;99.90
16966;DHT22;8599;47.852;12.070;2022-12-07T11:52:17;4.20;99.90
16966;DHT22;8599;47.852;12.070;2022-12-07T11:54:47;4.30;99.90
16966;DHT22;8599;47.852;12.070;2022-12-07T11:57:20;4.40;99.90
16966;DHT22;8599;47.852;12.070;2022-12-07T11:59:52;4.40;99.90
16966;DHT22;8599;47.852;12.070;2022-12-07T12:02:24;4.40;99.90
16966;DHT22;8599;47.852;12.070;2022-12-07T12:04:58;4.40;99.90
16966;DHT22;8599;47.852;12.070;2022-12-07T12:07:27;4.40;99.90
16966;DHT22;8599;47.852;12.070;2022-12-07T12:09:57;4.50;99.90
16966;DHT22;8599;47.852;12.070;2022-12-07T12:12:41;4.50;99.90
16966;DHT22;8599;47.852;12.070;2022-12-07T12:15:30;4.50;99.90
16966;DHT22;8599;47.852;12.070;2022-12-07T12:21:09;4.50;99.90
16966;DHT22;8599;47.852;12.070;2022-12-07T12:23:41;4.50;99.90
16966;DHT22;8599;47.852;12.070;2022-12-07T12:26:16;4.50;99.90
16966;DHT22;8599;47.852;12.070;2022-12-07T12:28:52;4.50;99.90
16966;DHT22;8599;47.852;12.070;2022-12-07T12:31:38;4.50;99.90
16966;DHT22;8599;47.852;12.070;2022-12-07T12:34:30;4.50;99.90
16966;DHT22;8599;47.852;12.070;2022-12-07T12:36:58;4.50;99.90
16966;DHT22;8599;47.852;12.070;2022-12-07T12:39:26;4.50;99.90
16966;DHT22;8599;47.852;12.070;2022-12-07T12:41:58;4.50;99.90
16966;DHT22;8599;47.852;12.070;2022-12-07T12:50:31;4.60;99.90
16966;DHT22;8599;47.852;12.070;2022-12-07T12:53:12;4.60;99.90
16966;DHT22;8599;47.852;12.070;2022-12-07T12:55:57;4.60;99.90
16966;DHT22;8599;47.852;12.070;2022-12-07T12:58:39;4.60;99.90
16966;DHT22;8599;47.852;12.070;2022-12-07T13:07:12;4.60;99.90
16966;DHT22;8599;47.852;12.070;2022-12-07T13:09:44;4.50;99.90
16966;DHT22;8599;47.852;12.070;2022-12-07T13:12:14;4.50;99.90
16966;DHT22;8599;47.852;12.070;2022-12-07T13:14:54;4.50;99.90
16966;DHT22;8599;47.852;12.070;2022-12-07T13:17:57;4.50;99.90
16966;DHT22;8599;47.852;12.070;2022-12-07T13:20:49;4.50;99.90
16966;DHT22;8599;47.852;12.070;2022-12-07T13:23:19;4.60;99.90
16966;DHT22;8599;47.852;12.070;2022-12-07T13:26:03;4.60;99.90
16966;DHT22;8599;47.852;12.070;2022-12-07T13:28:36;4.60;99.90
16966;DHT22;8599;47.852;12.070;2022-12-07T13:31:16;4.50;99.90
16966;DHT22;8599;47.852;12.070;2022-12-07T13:33:46;4.50;99.90
16966;DHT22;8599;47.852;12.070;2022-12-07T13:36:22;4.50;99.90
16966;DHT22;8599;47.852;12.070;2022-12-07T13:38:52;4.50;99.90
16966;DHT22;8599;47.852;12.070;2022-12-07T13:41:22;4.50;99.90
16966;DHT22;8599;47.852;12.070;2022-12-07T13:43:53;4.60;99.90
16966;DHT22;8599;47.852;12.070;2022-12-07T13:46:25;4.60;99.90
16966;DHT22;8599;47.852;12.070;2022-12-07T13:48:53;4.60;99.90
16966;DHT22;8599;47.852;12.070;2022-12-07T13:51:23;4.50;99.90
16966;DHT22;8599;47.852;12.070;2022-12-07T13:53:52;4.50;99.90
16966;DHT22;8599;47.852;12.070;2022-12-07T13:56:25;4.50;99.90
16966;DHT22;8599;47.852;12.070;2022-12-07T13:58:55;4.60;99.90
16966;DHT22;8599;47.852;12.070;2022-12-07T14:01:22;4.50;99.90
16966;DHT22;8599;47.852;12.070;2022-12-07T14:03:49;4.50;99.90
16966;DHT22;8599;47.852;12.070;2022-12-07T14:06:26;4.50;99.90
16966;DHT22;8599;47.852;12.070;2022-12-07T14:09:07;4.50;99.90
16966;DHT22;8599;47.852;12.070;2022-12-07T14:11:37;4.50;99.90
16966;DHT22;8599;47.852;12.070;2022-12-07T14:14:05;4.40;99.90
16966;DHT22;8599;47.852;12.070;2022-12-07T14:16:34;4.50;99.90
16966;DHT22;8599;47.852;12.070;2022-12-07T14:19:03;4.50;99.90
16966;DHT22;8599;47.852;12.070;2022-12-07T14:21:32;4.50;99.90
16966;DHT22;8599;47.852;12.070;2022-12-07T14:24:10;4.40;99.90
16966;DHT22;8599;47.852;12.070;2022-12-07T14:26:39;4.40;99.90
16966;DHT22;8599;47.852;12.070;2022-12-07T14:29:28;4.40;99.90
16966;DHT22;8599;47.852;12.070;2022-12-07T14:31:57;4.30;99.90
16966;DHT22;8599;47.852;12.070;2022-12-07T14:34:24;4.30;99.90
16966;DHT22;8599;47.852;12.070;2022-12-07T14:36:52;4.30;99.90
16966;DHT22;8599;47.852;12.070;2022-12-07T14:39:19;4.30;99.90
16966;DHT22;8599;47.852;12.070;2022-12-07T14:41:47;4.30;99.90
16966;DHT22;8599;47.852;12.070;2022-12-07T14:44:18;4.30;99.90
16966;DHT22;8599;47.852;12.070;2022-12-07T14:46:45;4.30;99.90
16966;DHT22;8599;47.852;12.070;2022-12-07T14:49:12;4.30;99.90
16966;DHT22;8599;47.852;12.070;2022-12-07T14:51:39;4.30;99.90
16966;DHT22;8599;47.852;12.070;2022-12-07T14:54:14;4.30;99.90
16966;DHT22;8599;47.852;12.070;2022-12-07T14:56:42;4.20;99.90
16966;DHT22;8599;47.852;12.070;2022-12-07T14:59:11;4.30;99.90
16966;DHT22;8599;47.852;12.070;2022-12-07T15:01:38;4.30;99.90
16966;DHT22;8599;47.852;12.070;2022-12-07T15:04:04;4.30;99.90
16966;DHT22;8599;47.852;12.070;2022-12-07T15:06:31;4.30;99.90
16966;DHT22;8599;47.852;12.070;2022-12-07T15:08:58;4.30;99.90
16966;DHT22;8599;47.852;12.070;2022-12-07T15:11:25;4.30;99.90
16966;DHT22;8599;47.852;12.070;2022-12-07T15:13:52;4.20;99.90
16966;DHT22;8599;47.852;12.070;2022-12-07T15:16:41;4.20;99.90
16966;DHT22;8599;47.852;12.070;2022-12-07T15:19:13;4.20;99.90
16966;DHT22;8599;47.852;12.070;2022-12-07T15:21:41;4.20;99.90
16966;DHT22;8599;47.852;12.070;2022-12-07T15:24:09;4.20;99.90
16966;DHT22;8599;47.852;12.070;2022-12-07T15:26:36;4.20;99.90
16966;DHT22;8599;47.852;12.070;2022-12-07T15:29:03;4.20;99.90
16966;DHT22;8599;47.852;12.070;2022-12-07T15:31:30;4.20;99.90
16966;DHT22;8599;47.852;12.070;2022-12-07T15:33:58;4.20;99.90
16966;DHT22;8599;47.852;12.070;2022-12-07T15:36:28;4.20;99.90
16966;DHT22;8599;47.852;12.070;2022-12-07T15:38:55;4.20;99.90
16966;DHT22;8599;47.852;12.070;2022-12-07T15:41:23;4.20;99.90
16966;DHT22;8599;47.852;12.070;2022-12-07T15:43:50;4.20;99.90
16966;DHT22;8599;47.852;12.070;2022-12-07T15:46:36;4.10;99.90
16966;DHT22;8599;47.852;12.070;2022-12-07T15:49:08;4.10;99.90
16966;DHT22;8599;47.852;12.070;2022-12-07T15:51:36;4.10;99.90
16966;DHT22;8599;47.852;12.070;2022-12-07T15:54:03;4.10;99.90
16966;DHT22;8599;47.852;12.070;2022-12-07T15:56:30;4.10;99.90
16966;DHT22;8599;47.852;12.070;2022-12-07T15:58:57;4.10;99.90
16966;DHT22;8599;47.852;12.070;2022-12-07T16:01:24;4.10;99.90
16966;DHT22;8599;47.852;12.070;2022-12-07T16:03:51;4.10;99.90
16966;DHT22;8599;47.852;12.070;2022-12-07T16:06:19;4.10;99.90
16966;DHT22;8599;47.852;12.070;2022-12-07T16:08:46;4.10;99.90
16966;DHT22;8599;47.852;12.070;2022-12-07T16:11:13;4.10;99.90
16966;DHT22;8599;47.852;12.070;2022-12-07T16:13:40;4.10;99.90
16966;DHT22;8599;47.852;12.070;2022-12-07T16:16:09;4.10;99.90
16966;DHT22;8599;47.852;12.070;2022-12-07T16:18:37;4.10;99.90
16966;DHT22;8599;47.852;12.070;2022-12-07T16:21:04;4.10;99.90
16966;DHT22;8599;47.852;12.070;2022-12-07T16:23:32;4.10;99.90